sensor_id;sensor_type;location;lat;lon;timestamp;pressure;altitude;pressure_sealevel;temperature;humidity
38558;BME280;24333;42.626;23.308;2022-12-11T02:05:08;90159.41;;;10.58;100.00
38558;BME280;24333;42.626;23.308;2022-12-11T02:08:02;90165.13;;;10.47;100.00
38558;BME280;24333;42.626;23.308;2022-12-11T02:14:19;90155.25;;;10.69;100.00
38558;BME280;24333;42.626;23.308;2022-12-11T03:21:14;90053.56;;;11.74;100.00
38558;BME280;24333;42.626;23.308;2022-12-11T03:23:51;90072.91;;;11.80;100.00
38558;BME280;24333;42.626;23.308;2022-12-11T03:26:23;90090.81;;;11.81;100.00
38558;BME280;24333;42.626;23.308;2022-12-11T03:28:59;90115.19;;;11.88;100.00
38558;BME280;24333;42.626;23.308;2022-12-11T03:31:41;90114.63;;;11.80;100.00
38558;BME280;24333;42.626;23.308;2022-12-11T04:23:42;90229.84;;;11.88;100.00
38558;BME280;24333;42.626;23.308;2022-12-11T04:26:27;90247.53;;;11.83;100.00
38558;BME280;24333;42.626;23.308;2022-12-11T05:39:58;90334.22;;;11.96;100.00
38558;BME280;24333;42.626;23.308;2022-12-11T05:42:25;90290.72;;;11.89;100.00
38558;BME280;24333;42.626;23.308;2022-12-11T05:44:50;90282.31;;;11.96;100.00
38558;BME280;24333;42.626;23.308;2022-12-11T11:26:22;90348.91;;;13.04;100.00
38558;BME280;24333;42.626;23.308;2022-12-11T11:31:15;90335.56;;;13.06;100.00
38558;BME280;24333;42.626;23.308;2022-12-11T11:33:55;90344.91;;;12.79;100.00
38558;BME280;24333;42.626;23.308;2022-12-11T14:24:00;90496.00;;;3.73;100.00
38558;BME280;24333;42.626;23.308;2022-12-11T14:26:33;90512.31;;;3.91;100.00
38558;BME280;24333;42.626;23.308;2022-12-11T14:29:05;90513.34;;;3.72;100.00
38558;BME280;24333;42.626;23.308;2022-12-11T14:31:41;90512.56;;;3.71;100.00
38558;BME280;24333;42.626;23.308;2022-12-11T14:34:14;90524.97;;;3.80;100.00
38558;BME280;24333;42.626;23.308;2022-12-11T14:36:44;90506.34;;;3.64;100.00
38558;BME280;24333;42.626;23.308;2022-12-11T14:39:15;90517.53;;;3.69;100.00
38558;BME280;24333;42.626;23.308;2022-12-11T15:09:52;90566.47;;;2.92;100.00
38558;BME280;24333;42.626;23.308;2022-12-11T15:12:19;90561.44;;;2.91;100.00
38558;BME280;24333;42.626;23.308;2022-12-11T15:14:53;90555.72;;;2.96;100.00
38558;BME280;24333;42.626;23.308;2022-12-11T15:17:19;90553.41;;;2.94;100.00
38558;BME280;24333;42.626;23.308;2022-12-11T15:19:51;90565.75;;;2.99;100.00
38558;BME280;24333;42.626;23.308;2022-12-11T15:22:20;90567.75;;;3.02;100.00
38558;BME280;24333;42.626;23.308;2022-12-11T15:24:51;90560.75;;;2.97;100.00
38558;BME280;24333;42.626;23.308;2022-12-11T15:27:36;90573.53;;;3.04;100.00
38558;BME280;24333;42.626;23.308;2022-12-11T15:33:17;90573.97;;;3.10;100.00
38558;BME280;24333;42.626;23.308;2022-12-11T15:36:05;90573.13;;;3.02;100.00
38558;BME280;24333;42.626;23.308;2022-12-11T15:38:35;90592.25;;;2.93;100.00
38558;BME280;24333;42.626;23.308;2022-12-11T15:41:05;90584.09;;;2.86;100.00
38558;BME280;24333;42.626;23.308;2022-12-11T15:43:34;90598.06;;;2.95;100.00
38558;BME280;24333;42.626;23.308;2022-12-11T15:46:01;90586.94;;;3.00;100.00
38558;BME280;24333;42.626;23.308;2022-12-11T15:48:27;90588.84;;;3.00;100.00
38558;BME280;24333;42.626;23.308;2022-12-11T15:50:54;90591.19;;;3.01;100.00
38558;BME280;24333;42.626;23.308;2022-12-11T15:53:23;90591.13;;;2.98;100.00
38558;BME280;24333;42.626;23.308;2022-12-11T15:55:49;90604.91;;;2.89;100.00
38558;BME280;24333;42.626;23.308;2022-12-11T15:58:18;90606.00;;;2.84;100.00
38558;BME280;24333;42.626;23.308;2022-12-11T16:00:44;90611.50;;;2.65;100.00
38558;BME280;24333;42.626;23.308;2022-12-11T16:03:12;90617.44;;;2.47;100.00
38558;BME280;24333;42.626;23.308;2022-12-11T16:05:38;90619.22;;;2.39;100.00
38558;BME280;24333;42.626;23.308;2022-12-11T16:08:04;90627.22;;;2.32;100.00
38558;BME280;24333;42.626;23.308;2022-12-11T16:10:30;90618.16;;;2.17;100.00
38558;BME280;24333;42.626;23.308;2022-12-11T16:12:55;90648.94;;;2.20;100.00
38558;BME280;24333;42.626;23.308;2022-12-11T16:15:24;90651.56;;;2.16;100.00
38558;BME280;24333;42.626;23.308;2022-12-11T16:18:00;90656.63;;;2.21;100.00
38558;BME280;24333;42.626;23.308;2022-12-11T16:20:26;90662.06;;;2.25;100.00
38558;BME280;24333;42.626;23.308;2022-12-11T16:22:52;90663.81;;;2.13;100.00
38558;BME280;24333;42.626;23.308;2022-12-11T16:25:17;90660.44;;;2.20;100.00
38558;BME280;24333;42.626;23.308;2022-12-11T16:27:43;90674.38;;;2.26;100.00
38558;BME280;24333;42.626;23.308;2022-12-11T16:30:08;90674.00;;;2.27;100.00
38558;BME280;24333;42.626;23.308;2022-12-11T16:32:35;90666.94;;;2.15;100.00
38558;BME280;24333;42.626;23.308;2022-12-11T16:35:00;90665.06;;;2.20;100.00
38558;BME280;24333;42.626;23.308;2022-12-11T16:37:26;90659.72;;;2.23;100.00
38558;BME280;24333;42.626;23.308;2022-12-11T16:39:51;90665.66;;;2.33;100.00
38558;BME280;24333;42.626;23.308;2022-12-11T16:42:17;90660.81;;;2.19;100.00
38558;BME280;24333;42.626;23.308;2022-12-11T16:44:43;90663.50;;;2.19;100.00
38558;BME280;24333;42.626;23.308;2022-12-11T16:47:09;90668.06;;;2.14;100.00
38558;BME280;24333;42.626;23.308;2022-12-11T16:49:35;90656.41;;;2.07;100.00
38558;BME280;24333;42.626;23.308;2022-12-11T16:52:01;90667.16;;;2.07;100.00
38558;BME280;24333;42.626;23.308;2022-12-11T16:54:26;90678.44;;;2.16;100.00
38558;BME280;24333;42.626;23.308;2022-12-11T16:56:51;90677.19;;;2.10;100.00
38558;BME280;24333;42.626;23.308;2022-12-11T17:42:50;90718.06;;;1.96;100.00
38558;BME280;24333;42.626;23.308;2022-12-11T17:45:16;90712.91;;;1.87;100.00
38558;BME280;24333;42.626;23.308;2022-12-11T17:47:42;90708.66;;;1.86;100.00
38558;BME280;24333;42.626;23.308;2022-12-11T17:50:08;90719.13;;;1.91;100.00
38558;BME280;24333;42.626;23.308;2022-12-11T17:52:34;90723.97;;;2.05;100.00
38558;BME280;24333;42.626;23.308;2022-12-11T17:54:59;90731.81;;;2.14;100.00
38558;BME280;24333;42.626;23.308;2022-12-11T17:57:25;90740.41;;;2.23;100.00
38558;BME280;24333;42.626;23.308;2022-12-11T17:59:52;90745.06;;;2.26;100.00
38558;BME280;24333;42.626;23.308;2022-12-11T18:02:18;90728.94;;;2.03;100.00
38558;BME280;24333;42.626;23.308;2022-12-11T18:04:43;90742.44;;;2.07;100.00
38558;BME280;24333;42.626;23.308;2022-12-11T18:07:09;90754.41;;;2.33;100.00
38558;BME280;24333;42.626;23.308;2022-12-11T18:09:34;90754.34;;;2.29;100.00
38558;BME280;24333;42.626;23.308;2022-12-11T18:12:02;90747.41;;;2.28;100.00
38558;BME280;24333;42.626;23.308;2022-12-11T18:14:28;90749.28;;;2.24;100.00
38558;BME280;24333;42.626;23.308;2022-12-11T18:16:53;90746.09;;;2.18;100.00
38558;BME280;24333;42.626;23.308;2022-12-11T18:19:19;90735.88;;;2.04;100.00
38558;BME280;24333;42.626;23.308;2022-12-11T18:21:46;90749.88;;;2.13;100.00
38558;BME280;24333;42.626;23.308;2022-12-11T18:24:11;90740.00;;;1.98;100.00
38558;BME280;24333;42.626;23.308;2022-12-11T18:29:42;90744.19;;;1.95;100.00
38558;BME280;24333;42.626;23.308;2022-12-11T18:32:09;90743.28;;;1.87;100.00
38558;BME280;24333;42.626;23.308;2022-12-11T18:34:34;90748.56;;;1.84;100.00
38558;BME280;24333;42.626;23.308;2022-12-11T18:37:00;90760.16;;;1.88;100.00
38558;BME280;24333;42.626;23.308;2022-12-11T18:39:26;90756.50;;;1.77;100.00
38558;BME280;24333;42.626;23.308;2022-12-11T18:41:59;90758.13;;;1.81;100.00
38558;BME280;24333;42.626;23.308;2022-12-11T18:44:24;90755.13;;;1.63;100.00
38558;BME280;24333;42.626;23.308;2022-12-11T18:46:50;90769.69;;;1.62;100.00
38558;BME280;24333;42.626;23.308;2022-12-11T19:18:04;90778.50;;;1.82;100.00
38558;BME280;24333;42.626;23.308;2022-12-11T19:20:29;90782.94;;;1.94;100.00
38558;BME280;24333;42.626;23.308;2022-12-11T19:22:55;90784.94;;;1.97;100.00
38558;BME280;24333;42.626;23.308;2022-12-11T19:25:20;90798.13;;;2.06;100.00
38558;BME280;24333;42.626;23.308;2022-12-11T19:27:46;90801.31;;;2.12;100.00
38558;BME280;24333;42.626;23.308;2022-12-11T19:30:11;90795.75;;;2.24;100.00
38558;BME280;24333;42.626;23.308;2022-12-11T19:32:37;90806.34;;;2.13;100.00
38558;BME280;24333;42.626;23.308;2022-12-11T19:35:04;90804.97;;;2.23;100.00
38558;BME280;24333;42.626;23.308;2022-12-11T19:37:29;90810.13;;;2.32;100.00
38558;BME280;24333;42.626;23.308;2022-12-11T19:39:55;90812.28;;;2.46;100.00
38558;BME280;24333;42.626;23.308;2022-12-11T19:42:21;90818.91;;;2.52;100.00
38558;BME280;24333;42.626;23.308;2022-12-11T19:44:46;90827.09;;;2.59;100.00
38558;BME280;24333;42.626;23.308;2022-12-11T19:47:20;90834.75;;;2.57;100.00
38558;BME280;24333;42.626;23.308;2022-12-11T19:50:10;90831.81;;;2.20;100.00
38558;BME280;24333;42.626;23.308;2022-12-11T19:52:41;90843.63;;;2.15;100.00
38558;BME280;24333;42.626;23.308;2022-12-11T19:55:18;90829.03;;;2.16;100.00
38558;BME280;24333;42.626;23.308;2022-12-11T19:57:53;90836.47;;;2.23;100.00
38558;BME280;24333;42.626;23.308;2022-12-11T20:03:28;90835.00;;;1.86;100.00
38558;BME280;24333;42.626;23.308;2022-12-11T20:06:02;90825.94;;;1.94;100.00
38558;BME280;24333;42.626;23.308;2022-12-11T20:08:31;90824.97;;;1.83;100.00
38558;BME280;24333;42.626;23.308;2022-12-11T20:11:03;90806.84;;;1.80;100.00
38558;BME280;24333;42.626;23.308;2022-12-11T20:13:29;90821.34;;;1.95;100.00
38558;BME280;24333;42.626;23.308;2022-12-11T20:15:57;90822.06;;;1.92;100.00
38558;BME280;24333;42.626;23.308;2022-12-11T20:18:24;90815.25;;;1.98;100.00
38558;BME280;24333;42.626;23.308;2022-12-11T20:20:49;90823.25;;;2.14;100.00
38558;BME280;24333;42.626;23.308;2022-12-11T20:23:15;90826.34;;;2.16;100.00
38558;BME280;24333;42.626;23.308;2022-12-11T20:25:41;90841.25;;;2.33;100.00
38558;BME280;24333;42.626;23.308;2022-12-11T20:28:12;90834.53;;;2.43;100.00
38558;BME280;24333;42.626;23.308;2022-12-11T20:30:38;90818.00;;;2.44;100.00
38558;BME280;24333;42.626;23.308;2022-12-11T20:33:08;90815.81;;;2.50;100.00
38558;BME280;24333;42.626;23.308;2022-12-11T20:35:56;90805.88;;;2.54;100.00
38558;BME280;24333;42.626;23.308;2022-12-11T20:41:20;90817.63;;;2.66;100.00
38558;BME280;24333;42.626;23.308;2022-12-11T20:43:46;90814.00;;;2.58;100.00
38558;BME280;24333;42.626;23.308;2022-12-11T20:46:16;90834.88;;;2.65;100.00
38558;BME280;24333;42.626;23.308;2022-12-11T20:48:53;90813.94;;;2.54;100.00
38558;BME280;24333;42.626;23.308;2022-12-11T20:51:21;90833.75;;;2.66;100.00
38558;BME280;24333;42.626;23.308;2022-12-11T20:53:47;90836.88;;;2.68;100.00
38558;BME280;24333;42.626;23.308;2022-12-11T20:56:18;90833.75;;;2.66;100.00
38558;BME280;24333;42.626;23.308;2022-12-11T20:58:46;90829.56;;;2.68;100.00
38558;BME280;24333;42.626;23.308;2022-12-11T21:01:21;90827.94;;;2.64;100.00
38558;BME280;24333;42.626;23.308;2022-12-11T21:03:55;90845.06;;;2.75;100.00
38558;BME280;24333;42.626;23.308;2022-12-11T21:49:08;90858.50;;;2.75;100.00
38558;BME280;24333;42.626;23.308;2022-12-11T21:51:37;90840.69;;;2.67;100.00
38558;BME280;24333;42.626;23.308;2022-12-11T21:54:05;90852.75;;;2.77;100.00
38558;BME280;24333;42.626;23.308;2022-12-11T21:56:33;90856.00;;;2.86;100.00
38558;BME280;24333;42.626;23.308;2022-12-11T21:58:59;90833.50;;;2.74;100.00
38558;BME280;24333;42.626;23.308;2022-12-11T22:01:34;90838.16;;;2.78;100.00
38558;BME280;24333;42.626;23.308;2022-12-11T22:04:07;90838.47;;;2.72;100.00
38558;BME280;24333;42.626;23.308;2022-12-11T22:06:37;90859.88;;;2.88;100.00
38558;BME280;24333;42.626;23.308;2022-12-11T22:09:07;90845.28;;;2.66;100.00
38558;BME280;24333;42.626;23.308;2022-12-11T22:11:34;90863.38;;;2.66;100.00
38558;BME280;24333;42.626;23.308;2022-12-11T22:14:03;90838.47;;;2.49;100.00
38558;BME280;24333;42.626;23.308;2022-12-11T22:16:32;90854.09;;;2.63;100.00
38558;BME280;24333;42.626;23.308;2022-12-11T22:18:59;90845.09;;;2.55;100.00
38558;BME280;24333;42.626;23.308;2022-12-11T22:21:46;90865.69;;;2.67;100.00
38558;BME280;24333;42.626;23.308;2022-12-11T22:31:39;90868.44;;;2.48;100.00
38558;BME280;24333;42.626;23.308;2022-12-11T22:34:51;90843.88;;;2.29;100.00
38558;BME280;24333;42.626;23.308;2022-12-11T22:41:26;90885.53;;;2.59;100.00
